sensor_id;sensor_type;location;lat;lon;timestamp;P1;durP1;ratioP1;P2;durP2;ratioP2
20497;SDS011;10407;53.238;10.448;2023-12-04T00:00:23;175.10;;;68.67;;
20497;SDS011;10407;53.238;10.448;2023-12-04T00:02:50;175.70;;;67.30;;
20497;SDS011;10407;53.238;10.448;2023-12-04T00:05:18;173.70;;;59.00;;
20497;SDS011;10407;53.238;10.448;2023-12-04T00:07:45;172.67;;;63.73;;
20497;SDS011;10407;53.238;10.448;2023-12-04T00:10:13;177.63;;;66.93;;
20497;SDS011;10407;53.238;10.448;2023-12-04T00:12:41;170.90;;;67.00;;
20497;SDS011;10407;53.238;10.448;2023-12-04T00:15:08;173.77;;;62.90;;
20497;SDS011;10407;53.238;10.448;2023-12-04T00:17:36;178.33;;;68.67;;
20497;SDS011;10407;53.238;10.448;2023-12-04T00:20:06;180.53;;;65.70;;
20497;SDS011;10407;53.238;10.448;2023-12-04T00:22:35;189.17;;;71.30;;
20497;SDS011;10407;53.238;10.448;2023-12-04T00:25:03;186.13;;;66.93;;
20497;SDS011;10407;53.238;10.448;2023-12-04T00:27:32;178.17;;;68.73;;
20497;SDS011;10407;53.238;10.448;2023-12-04T00:30:00;173.60;;;65.37;;
20497;SDS011;10407;53.238;10.448;2023-12-04T00:32:29;172.07;;;66.00;;
20497;SDS011;10407;53.238;10.448;2023-12-04T00:34:56;177.67;;;65.67;;
20497;SDS011;10407;53.238;10.448;2023-12-04T00:37:25;173.20;;;65.70;;
20497;SDS011;10407;53.238;10.448;2023-12-04T00:39:53;174.07;;;64.90;;
20497;SDS011;10407;53.238;10.448;2023-12-04T00:42:21;182.33;;;68.13;;
20497;SDS011;10407;53.238;10.448;2023-12-04T00:44:48;179.23;;;66.73;;
20497;SDS011;10407;53.238;10.448;2023-12-04T00:47:16;179.70;;;64.30;;
20497;SDS011;10407;53.238;10.448;2023-12-04T00:49:43;183.03;;;63.67;;
20497;SDS011;10407;53.238;10.448;2023-12-04T00:52:11;173.13;;;67.00;;
20497;SDS011;10407;53.238;10.448;2023-12-04T00:54:39;175.87;;;71.20;;
20497;SDS011;10407;53.238;10.448;2023-12-04T00:57:07;176.90;;;61.33;;
20497;SDS011;10407;53.238;10.448;2023-12-04T00:59:35;174.57;;;64.30;;
20497;SDS011;10407;53.238;10.448;2023-12-04T01:02:02;180.87;;;63.20;;
20497;SDS011;10407;53.238;10.448;2023-12-04T01:04:32;165.93;;;62.53;;
20497;SDS011;10407;53.238;10.448;2023-12-04T01:06:59;174.60;;;64.23;;
20497;SDS011;10407;53.238;10.448;2023-12-04T01:09:27;167.40;;;56.97;;
20497;SDS011;10407;53.238;10.448;2023-12-04T01:11:55;176.87;;;57.83;;
20497;SDS011;10407;53.238;10.448;2023-12-04T01:14:22;173.43;;;60.60;;
20497;SDS011;10407;53.238;10.448;2023-12-04T01:16:50;171.93;;;58.00;;
20497;SDS011;10407;53.238;10.448;2023-12-04T01:19:17;176.27;;;62.40;;
20497;SDS011;10407;53.238;10.448;2023-12-04T01:21:45;168.80;;;54.40;;
20497;SDS011;10407;53.238;10.448;2023-12-04T01:24:13;175.20;;;60.77;;
20497;SDS011;10407;53.238;10.448;2023-12-04T01:26:42;174.53;;;60.20;;
20497;SDS011;10407;53.238;10.448;2023-12-04T01:29:09;165.80;;;53.20;;
20497;SDS011;10407;53.238;10.448;2023-12-04T01:31:37;171.83;;;58.63;;
20497;SDS011;10407;53.238;10.448;2023-12-04T01:34:04;170.90;;;55.17;;
20497;SDS011;10407;53.238;10.448;2023-12-04T01:36:32;160.70;;;55.23;;
20497;SDS011;10407;53.238;10.448;2023-12-04T01:38:59;182.50;;;51.77;;
20497;SDS011;10407;53.238;10.448;2023-12-04T01:41:27;164.70;;;53.50;;
20497;SDS011;10407;53.238;10.448;2023-12-04T01:43:54;165.00;;;52.87;;
20497;SDS011;10407;53.238;10.448;2023-12-04T01:46:22;165.10;;;54.00;;
20497;SDS011;10407;53.238;10.448;2023-12-04T01:48:49;163.07;;;48.70;;
20497;SDS011;10407;53.238;10.448;2023-12-04T01:51:17;164.07;;;54.27;;
20497;SDS011;10407;53.238;10.448;2023-12-04T01:53:46;162.33;;;50.17;;
20497;SDS011;10407;53.238;10.448;2023-12-04T01:56:15;171.20;;;55.43;;
20497;SDS011;10407;53.238;10.448;2023-12-04T01:58:44;170.97;;;56.03;;
20497;SDS011;10407;53.238;10.448;2023-12-04T02:01:12;165.93;;;51.57;;
20497;SDS011;10407;53.238;10.448;2023-12-04T02:03:40;169.23;;;54.33;;
20497;SDS011;10407;53.238;10.448;2023-12-04T02:06:09;166.27;;;54.20;;
20497;SDS011;10407;53.238;10.448;2023-12-04T02:08:37;164.47;;;53.50;;
20497;SDS011;10407;53.238;10.448;2023-12-04T02:11:07;171.30;;;53.37;;
20497;SDS011;10407;53.238;10.448;2023-12-04T02:13:36;162.70;;;51.13;;
20497;SDS011;10407;53.238;10.448;2023-12-04T02:19:05;163.90;;;53.27;;
20497;SDS011;10407;53.238;10.448;2023-12-04T02:21:35;161.37;;;54.50;;
20497;SDS011;10407;53.238;10.448;2023-12-04T02:24:02;162.60;;;52.87;;
20497;SDS011;10407;53.238;10.448;2023-12-04T02:26:31;161.47;;;54.67;;
20497;SDS011;10407;53.238;10.448;2023-12-04T02:29:02;159.87;;;51.60;;
20497;SDS011;10407;53.238;10.448;2023-12-04T02:31:31;167.53;;;56.10;;
20497;SDS011;10407;53.238;10.448;2023-12-04T02:34:01;173.00;;;54.50;;
20497;SDS011;10407;53.238;10.448;2023-12-04T02:36:31;159.40;;;55.07;;
20497;SDS011;10407;53.238;10.448;2023-12-04T02:39:00;168.17;;;53.30;;
20497;SDS011;10407;53.238;10.448;2023-12-04T02:41:29;162.33;;;55.90;;
20497;SDS011;10407;53.238;10.448;2023-12-04T02:43:56;168.50;;;57.10;;
20497;SDS011;10407;53.238;10.448;2023-12-04T02:46:23;172.00;;;58.27;;
20497;SDS011;10407;53.238;10.448;2023-12-04T02:48:51;167.53;;;54.67;;
20497;SDS011;10407;53.238;10.448;2023-12-04T02:51:19;167.60;;;56.00;;
20497;SDS011;10407;53.238;10.448;2023-12-04T02:53:47;161.43;;;56.20;;
20497;SDS011;10407;53.238;10.448;2023-12-04T02:56:14;167.83;;;54.60;;
20497;SDS011;10407;53.238;10.448;2023-12-04T02:58:42;160.17;;;52.57;;
20497;SDS011;10407;53.238;10.448;2023-12-04T03:01:09;165.33;;;52.93;;
20497;SDS011;10407;53.238;10.448;2023-12-04T03:03:36;169.80;;;56.40;;
20497;SDS011;10407;53.238;10.448;2023-12-04T03:06:04;168.50;;;52.13;;
20497;SDS011;10407;53.238;10.448;2023-12-04T03:08:32;163.47;;;53.00;;
20497;SDS011;10407;53.238;10.448;2023-12-04T03:11:01;162.50;;;47.10;;
20497;SDS011;10407;53.238;10.448;2023-12-04T03:13:29;164.97;;;55.60;;
20497;SDS011;10407;53.238;10.448;2023-12-04T03:15:56;161.30;;;51.97;;
20497;SDS011;10407;53.238;10.448;2023-12-04T03:18:24;164.77;;;51.37;;
20497;SDS011;10407;53.238;10.448;2023-12-04T03:20:52;164.27;;;53.83;;
20497;SDS011;10407;53.238;10.448;2023-12-04T03:23:19;173.97;;;57.27;;
20497;SDS011;10407;53.238;10.448;2023-12-04T03:25:47;159.37;;;51.77;;
20497;SDS011;10407;53.238;10.448;2023-12-04T03:28:14;168.63;;;55.00;;
20497;SDS011;10407;53.238;10.448;2023-12-04T03:30:42;164.03;;;51.07;;
20497;SDS011;10407;53.238;10.448;2023-12-04T03:33:11;165.03;;;50.80;;
20497;SDS011;10407;53.238;10.448;2023-12-04T03:35:38;157.83;;;48.83;;
20497;SDS011;10407;53.238;10.448;2023-12-04T03:38:06;167.23;;;49.03;;
20497;SDS011;10407;53.238;10.448;2023-12-04T03:40:34;160.27;;;46.73;;
20497;SDS011;10407;53.238;10.448;2023-12-04T03:43:01;158.93;;;48.63;;
20497;SDS011;10407;53.238;10.448;2023-12-04T03:45:29;160.30;;;49.60;;
20497;SDS011;10407;53.238;10.448;2023-12-04T03:47:56;163.53;;;51.50;;
20497;SDS011;10407;53.238;10.448;2023-12-04T03:50:24;159.73;;;50.37;;
20497;SDS011;10407;53.238;10.448;2023-12-04T03:52:51;159.37;;;49.37;;
20497;SDS011;10407;53.238;10.448;2023-12-04T03:55:19;165.40;;;51.77;;
20497;SDS011;10407;53.238;10.448;2023-12-04T03:57:47;163.20;;;54.47;;
20497;SDS011;10407;53.238;10.448;2023-12-04T04:00:14;160.80;;;51.27;;
20497;SDS011;10407;53.238;10.448;2023-12-04T04:02:42;154.57;;;46.40;;
20497;SDS011;10407;53.238;10.448;2023-12-04T04:05:10;164.73;;;48.77;;
20497;SDS011;10407;53.238;10.448;2023-12-04T04:07:39;156.73;;;50.27;;
20497;SDS011;10407;53.238;10.448;2023-12-04T04:10:07;155.17;;;48.90;;
20497;SDS011;10407;53.238;10.448;2023-12-04T04:12:35;160.27;;;50.30;;
20497;SDS011;10407;53.238;10.448;2023-12-04T04:15:03;155.33;;;47.23;;
20497;SDS011;10407;53.238;10.448;2023-12-04T04:17:31;152.47;;;46.00;;
20497;SDS011;10407;53.238;10.448;2023-12-04T04:19:59;154.07;;;45.03;;
20497;SDS011;10407;53.238;10.448;2023-12-04T04:22:27;149.70;;;43.27;;
20497;SDS011;10407;53.238;10.448;2023-12-04T04:24:54;153.30;;;45.27;;
20497;SDS011;10407;53.238;10.448;2023-12-04T04:27:22;150.47;;;40.90;;
20497;SDS011;10407;53.238;10.448;2023-12-04T04:29:50;157.80;;;44.17;;
20497;SDS011;10407;53.238;10.448;2023-12-04T04:32:17;155.30;;;43.77;;
20497;SDS011;10407;53.238;10.448;2023-12-04T04:34:45;161.43;;;43.00;;
20497;SDS011;10407;53.238;10.448;2023-12-04T04:37:12;153.47;;;44.87;;
20497;SDS011;10407;53.238;10.448;2023-12-04T04:39:40;154.83;;;46.47;;
20497;SDS011;10407;53.238;10.448;2023-12-04T04:42:07;153.97;;;46.63;;
20497;SDS011;10407;53.238;10.448;2023-12-04T04:44:35;156.57;;;42.10;;
20497;SDS011;10407;53.238;10.448;2023-12-04T04:47:03;154.67;;;42.27;;
20497;SDS011;10407;53.238;10.448;2023-12-04T04:49:30;159.53;;;44.97;;
20497;SDS011;10407;53.238;10.448;2023-12-04T04:51:58;148.13;;;39.07;;
20497;SDS011;10407;53.238;10.448;2023-12-04T04:54:25;151.57;;;39.23;;
20497;SDS011;10407;53.238;10.448;2023-12-04T04:56:53;156.17;;;43.30;;
20497;SDS011;10407;53.238;10.448;2023-12-04T04:59:20;155.43;;;43.40;;
20497;SDS011;10407;53.238;10.448;2023-12-04T05:01:48;156.43;;;45.93;;
20497;SDS011;10407;53.238;10.448;2023-12-04T05:04:16;154.17;;;45.73;;
20497;SDS011;10407;53.238;10.448;2023-12-04T05:06:44;152.97;;;41.50;;
20497;SDS011;10407;53.238;10.448;2023-12-04T05:09:11;162.63;;;50.50;;
20497;SDS011;10407;53.238;10.448;2023-12-04T05:11:39;158.60;;;49.67;;
20497;SDS011;10407;53.238;10.448;2023-12-04T05:14:07;156.27;;;45.97;;
20497;SDS011;10407;53.238;10.448;2023-12-04T05:16:34;156.57;;;44.97;;
20497;SDS011;10407;53.238;10.448;2023-12-04T05:19:02;159.30;;;45.83;;
20497;SDS011;10407;53.238;10.448;2023-12-04T05:21:29;154.53;;;44.67;;
20497;SDS011;10407;53.238;10.448;2023-12-04T05:23:57;156.80;;;46.87;;
20497;SDS011;10407;53.238;10.448;2023-12-04T05:26:24;154.83;;;42.83;;
20497;SDS011;10407;53.238;10.448;2023-12-04T05:28:52;162.17;;;48.00;;
20497;SDS011;10407;53.238;10.448;2023-12-04T05:31:19;159.30;;;45.93;;
20497;SDS011;10407;53.238;10.448;2023-12-04T05:33:47;160.67;;;47.10;;
20497;SDS011;10407;53.238;10.448;2023-12-04T05:36:14;160.00;;;49.20;;
20497;SDS011;10407;53.238;10.448;2023-12-04T05:38:42;160.23;;;44.17;;
20497;SDS011;10407;53.238;10.448;2023-12-04T05:41:09;159.10;;;48.80;;
20497;SDS011;10407;53.238;10.448;2023-12-04T05:43:37;153.77;;;46.33;;
20497;SDS011;10407;53.238;10.448;2023-12-04T05:46:04;153.03;;;44.27;;
20497;SDS011;10407;53.238;10.448;2023-12-04T05:48:32;155.50;;;43.70;;
20497;SDS011;10407;53.238;10.448;2023-12-04T05:50:59;161.07;;;47.07;;
20497;SDS011;10407;53.238;10.448;2023-12-04T05:53:27;157.57;;;45.00;;
20497;SDS011;10407;53.238;10.448;2023-12-04T05:55:55;153.27;;;47.90;;
20497;SDS011;10407;53.238;10.448;2023-12-04T05:58:22;158.53;;;52.10;;
20497;SDS011;10407;53.238;10.448;2023-12-04T06:00:50;158.90;;;47.90;;
20497;SDS011;10407;53.238;10.448;2023-12-04T06:03:17;159.03;;;50.93;;
20497;SDS011;10407;53.238;10.448;2023-12-04T06:05:45;158.07;;;51.87;;
20497;SDS011;10407;53.238;10.448;2023-12-04T06:08:12;168.93;;;47.30;;
20497;SDS011;10407;53.238;10.448;2023-12-04T06:10:40;166.93;;;47.70;;
20497;SDS011;10407;53.238;10.448;2023-12-04T06:13:08;157.80;;;48.60;;
20497;SDS011;10407;53.238;10.448;2023-12-04T06:15:35;161.57;;;47.10;;
20497;SDS011;10407;53.238;10.448;2023-12-04T06:18:03;166.90;;;53.43;;
20497;SDS011;10407;53.238;10.448;2023-12-04T06:20:30;160.67;;;53.23;;
20497;SDS011;10407;53.238;10.448;2023-12-04T06:22:58;162.57;;;54.17;;
20497;SDS011;10407;53.238;10.448;2023-12-04T06:25:25;168.10;;;53.80;;
20497;SDS011;10407;53.238;10.448;2023-12-04T06:27:53;158.27;;;50.90;;
20497;SDS011;10407;53.238;10.448;2023-12-04T06:30:21;161.30;;;56.00;;
20497;SDS011;10407;53.238;10.448;2023-12-04T06:32:49;157.23;;;51.57;;
20497;SDS011;10407;53.238;10.448;2023-12-04T06:35:17;160.47;;;56.80;;
20497;SDS011;10407;53.238;10.448;2023-12-04T06:37:45;168.33;;;58.50;;
20497;SDS011;10407;53.238;10.448;2023-12-04T06:40:15;161.13;;;55.70;;
20497;SDS011;10407;53.238;10.448;2023-12-04T06:42:43;156.77;;;56.90;;
20497;SDS011;10407;53.238;10.448;2023-12-04T06:45:11;154.07;;;57.00;;
20497;SDS011;10407;53.238;10.448;2023-12-04T06:47:40;166.60;;;62.97;;
20497;SDS011;10407;53.238;10.448;2023-12-04T06:50:09;169.37;;;61.37;;
20497;SDS011;10407;53.238;10.448;2023-12-04T06:52:37;163.63;;;61.13;;
20497;SDS011;10407;53.238;10.448;2023-12-04T06:55:04;160.20;;;57.57;;
20497;SDS011;10407;53.238;10.448;2023-12-04T06:57:32;159.37;;;59.33;;
20497;SDS011;10407;53.238;10.448;2023-12-04T07:00:00;160.27;;;61.90;;
20497;SDS011;10407;53.238;10.448;2023-12-04T07:02:28;163.00;;;57.63;;
20497;SDS011;10407;53.238;10.448;2023-12-04T07:04:56;165.03;;;56.27;;
20497;SDS011;10407;53.238;10.448;2023-12-04T07:07:23;168.80;;;60.87;;
20497;SDS011;10407;53.238;10.448;2023-12-04T07:09:51;169.53;;;65.80;;
20497;SDS011;10407;53.238;10.448;2023-12-04T07:12:19;162.67;;;64.40;;
20497;SDS011;10407;53.238;10.448;2023-12-04T07:14:47;164.37;;;61.20;;
20497;SDS011;10407;53.238;10.448;2023-12-04T07:17:15;163.50;;;55.47;;
20497;SDS011;10407;53.238;10.448;2023-12-04T07:19:43;165.07;;;65.47;;
20497;SDS011;10407;53.238;10.448;2023-12-04T07:22:10;157.53;;;56.37;;
20497;SDS011;10407;53.238;10.448;2023-12-04T07:24:38;157.87;;;58.23;;
20497;SDS011;10407;53.238;10.448;2023-12-04T07:27:06;162.53;;;62.23;;
20497;SDS011;10407;53.238;10.448;2023-12-04T07:29:35;161.93;;;58.60;;
20497;SDS011;10407;53.238;10.448;2023-12-04T07:32:04;155.47;;;53.70;;
20497;SDS011;10407;53.238;10.448;2023-12-04T07:34:32;161.07;;;54.23;;
20497;SDS011;10407;53.238;10.448;2023-12-04T07:36:59;156.00;;;51.53;;
20497;SDS011;10407;53.238;10.448;2023-12-04T07:39:28;156.70;;;54.10;;
20497;SDS011;10407;53.238;10.448;2023-12-04T07:41:55;166.87;;;63.60;;
20497;SDS011;10407;53.238;10.448;2023-12-04T07:44:23;161.40;;;59.40;;
20497;SDS011;10407;53.238;10.448;2023-12-04T07:46:50;156.10;;;56.30;;
20497;SDS011;10407;53.238;10.448;2023-12-04T07:49:18;158.33;;;54.20;;
20497;SDS011;10407;53.238;10.448;2023-12-04T07:51:46;165.77;;;57.23;;
20497;SDS011;10407;53.238;10.448;2023-12-04T07:54:13;164.50;;;52.10;;
20497;SDS011;10407;53.238;10.448;2023-12-04T07:56:41;156.80;;;53.53;;
20497;SDS011;10407;53.238;10.448;2023-12-04T07:59:08;154.63;;;52.43;;
20497;SDS011;10407;53.238;10.448;2023-12-04T08:01:36;160.70;;;53.87;;
20497;SDS011;10407;53.238;10.448;2023-12-04T08:04:03;159.67;;;52.00;;
20497;SDS011;10407;53.238;10.448;2023-12-04T08:06:31;156.90;;;57.40;;
20497;SDS011;10407;53.238;10.448;2023-12-04T08:08:58;158.07;;;53.87;;
20497;SDS011;10407;53.238;10.448;2023-12-04T08:11:26;156.23;;;56.07;;
20497;SDS011;10407;53.238;10.448;2023-12-04T08:13:53;160.70;;;56.43;;
20497;SDS011;10407;53.238;10.448;2023-12-04T08:16:21;169.23;;;55.97;;
20497;SDS011;10407;53.238;10.448;2023-12-04T08:18:48;160.50;;;52.60;;
20497;SDS011;10407;53.238;10.448;2023-12-04T08:21:16;173.73;;;59.73;;
20497;SDS011;10407;53.238;10.448;2023-12-04T08:23:43;159.03;;;54.37;;
20497;SDS011;10407;53.238;10.448;2023-12-04T08:26:11;164.07;;;60.17;;
20497;SDS011;10407;53.238;10.448;2023-12-04T08:28:39;170.07;;;55.10;;
20497;SDS011;10407;53.238;10.448;2023-12-04T08:31:08;154.53;;;49.57;;
20497;SDS011;10407;53.238;10.448;2023-12-04T08:33:35;164.93;;;54.40;;
20497;SDS011;10407;53.238;10.448;2023-12-04T08:36:03;156.03;;;52.97;;
20497;SDS011;10407;53.238;10.448;2023-12-04T08:38:31;164.13;;;54.63;;
20497;SDS011;10407;53.238;10.448;2023-12-04T08:40:58;184.87;;;100.97;;
20497;SDS011;10407;53.238;10.448;2023-12-04T08:43:26;228.30;;;180.77;;
20497;SDS011;10407;53.238;10.448;2023-12-04T08:45:54;156.33;;;52.27;;
20497;SDS011;10407;53.238;10.448;2023-12-04T08:48:22;155.17;;;52.57;;
20497;SDS011;10407;53.238;10.448;2023-12-04T08:50:49;153.60;;;53.63;;
20497;SDS011;10407;53.238;10.448;2023-12-04T08:53:17;158.33;;;51.03;;
20497;SDS011;10407;53.238;10.448;2023-12-04T08:55:44;161.43;;;52.93;;
20497;SDS011;10407;53.238;10.448;2023-12-04T08:58:12;154.07;;;52.87;;
20497;SDS011;10407;53.238;10.448;2023-12-04T09:00:40;161.00;;;57.33;;
20497;SDS011;10407;53.238;10.448;2023-12-04T09:03:11;161.83;;;59.37;;
20497;SDS011;10407;53.238;10.448;2023-12-04T09:05:39;163.53;;;52.93;;
20497;SDS011;10407;53.238;10.448;2023-12-04T09:08:06;156.80;;;52.37;;
20497;SDS011;10407;53.238;10.448;2023-12-04T09:10:34;157.40;;;51.93;;
20497;SDS011;10407;53.238;10.448;2023-12-04T09:13:01;163.70;;;58.30;;
20497;SDS011;10407;53.238;10.448;2023-12-04T09:15:29;155.07;;;52.57;;
20497;SDS011;10407;53.238;10.448;2023-12-04T09:17:56;158.67;;;48.27;;
20497;SDS011;10407;53.238;10.448;2023-12-04T09:20:24;149.70;;;47.00;;
20497;SDS011;10407;53.238;10.448;2023-12-04T09:22:51;156.87;;;49.03;;
20497;SDS011;10407;53.238;10.448;2023-12-04T09:25:19;157.10;;;51.67;;
20497;SDS011;10407;53.238;10.448;2023-12-04T09:27:47;152.27;;;44.90;;
20497;SDS011;10407;53.238;10.448;2023-12-04T09:30:14;159.23;;;49.17;;
20497;SDS011;10407;53.238;10.448;2023-12-04T09:32:42;151.93;;;46.53;;
20497;SDS011;10407;53.238;10.448;2023-12-04T09:35:10;148.50;;;44.60;;
20497;SDS011;10407;53.238;10.448;2023-12-04T09:37:37;145.57;;;39.53;;
20497;SDS011;10407;53.238;10.448;2023-12-04T09:40:05;152.27;;;46.20;;
20497;SDS011;10407;53.238;10.448;2023-12-04T09:42:33;150.30;;;38.63;;
20497;SDS011;10407;53.238;10.448;2023-12-04T09:45:02;150.10;;;38.20;;
20497;SDS011;10407;53.238;10.448;2023-12-04T09:47:32;146.43;;;39.33;;
20497;SDS011;10407;53.238;10.448;2023-12-04T09:50:00;150.63;;;40.43;;
20497;SDS011;10407;53.238;10.448;2023-12-04T09:52:28;150.87;;;36.97;;
20497;SDS011;10407;53.238;10.448;2023-12-04T09:54:56;147.83;;;36.10;;
20497;SDS011;10407;53.238;10.448;2023-12-04T09:57:24;146.80;;;37.70;;
20497;SDS011;10407;53.238;10.448;2023-12-04T09:59:52;157.00;;;39.37;;
20497;SDS011;10407;53.238;10.448;2023-12-04T10:02:20;154.87;;;39.50;;
20497;SDS011;10407;53.238;10.448;2023-12-04T10:04:47;147.30;;;35.60;;
20497;SDS011;10407;53.238;10.448;2023-12-04T10:07:15;168.80;;;39.90;;
20497;SDS011;10407;53.238;10.448;2023-12-04T10:09:42;145.77;;;36.37;;
20497;SDS011;10407;53.238;10.448;2023-12-04T10:12:10;143.67;;;37.53;;
20497;SDS011;10407;53.238;10.448;2023-12-04T10:14:38;147.20;;;36.90;;
20497;SDS011;10407;53.238;10.448;2023-12-04T10:17:14;149.27;;;41.63;;
20497;SDS011;10407;53.238;10.448;2023-12-04T10:19:43;149.50;;;41.10;;
20497;SDS011;10407;53.238;10.448;2023-12-04T10:22:11;153.07;;;40.67;;
20497;SDS011;10407;53.238;10.448;2023-12-04T10:24:40;145.60;;;35.50;;
20497;SDS011;10407;53.238;10.448;2023-12-04T10:27:08;150.57;;;35.83;;
20497;SDS011;10407;53.238;10.448;2023-12-04T10:32:12;150.20;;;37.33;;
20497;SDS011;10407;53.238;10.448;2023-12-04T10:34:42;149.17;;;36.00;;
20497;SDS011;10407;53.238;10.448;2023-12-04T10:37:09;151.47;;;39.77;;
20497;SDS011;10407;53.238;10.448;2023-12-04T10:39:47;150.80;;;41.63;;
20497;SDS011;10407;53.238;10.448;2023-12-04T10:42:26;143.00;;;35.90;;
20497;SDS011;10407;53.238;10.448;2023-12-04T10:44:56;144.20;;;38.27;;
20497;SDS011;10407;53.238;10.448;2023-12-04T10:47:24;147.33;;;41.17;;
20497;SDS011;10407;53.238;10.448;2023-12-04T10:49:53;145.60;;;39.03;;
20497;SDS011;10407;53.238;10.448;2023-12-04T10:52:21;141.70;;;37.33;;
20497;SDS011;10407;53.238;10.448;2023-12-04T10:54:50;148.63;;;39.00;;
20497;SDS011;10407;53.238;10.448;2023-12-04T10:57:21;153.70;;;41.30;;
20497;SDS011;10407;53.238;10.448;2023-12-04T11:00:02;147.40;;;35.97;;
20497;SDS011;10407;53.238;10.448;2023-12-04T11:02:25;147.90;;;39.13;;
20497;SDS011;10407;53.238;10.448;2023-12-04T11:04:55;148.07;;;37.50;;
20497;SDS011;10407;53.238;10.448;2023-12-04T11:07:25;147.83;;;37.37;;
20497;SDS011;10407;53.238;10.448;2023-12-04T11:09:54;148.50;;;35.97;;
20497;SDS011;10407;53.238;10.448;2023-12-04T11:12:23;144.97;;;36.40;;
20497;SDS011;10407;53.238;10.448;2023-12-04T11:14:56;145.30;;;37.53;;
20497;SDS011;10407;53.238;10.448;2023-12-04T11:17:26;147.37;;;37.20;;
20497;SDS011;10407;53.238;10.448;2023-12-04T11:19:59;149.83;;;38.03;;
20497;SDS011;10407;53.238;10.448;2023-12-04T11:22:27;149.87;;;39.97;;
20497;SDS011;10407;53.238;10.448;2023-12-04T11:24:55;143.30;;;36.07;;
20497;SDS011;10407;53.238;10.448;2023-12-04T11:27:24;146.00;;;37.90;;
20497;SDS011;10407;53.238;10.448;2023-12-04T11:29:51;146.87;;;35.20;;
20497;SDS011;10407;53.238;10.448;2023-12-04T11:32:20;145.67;;;35.53;;
20497;SDS011;10407;53.238;10.448;2023-12-04T11:34:58;145.37;;;37.97;;
20497;SDS011;10407;53.238;10.448;2023-12-04T11:37:23;148.90;;;41.37;;
20497;SDS011;10407;53.238;10.448;2023-12-04T11:39:51;151.07;;;34.67;;
20497;SDS011;10407;53.238;10.448;2023-12-04T11:42:22;145.10;;;36.00;;
20497;SDS011;10407;53.238;10.448;2023-12-04T11:44:56;152.67;;;38.37;;
20497;SDS011;10407;53.238;10.448;2023-12-04T11:47:24;149.40;;;40.00;;
20497;SDS011;10407;53.238;10.448;2023-12-04T11:49:53;147.63;;;35.80;;
20497;SDS011;10407;53.238;10.448;2023-12-04T11:52:32;143.30;;;35.40;;
20497;SDS011;10407;53.238;10.448;2023-12-04T11:55:04;144.07;;;34.73;;
20497;SDS011;10407;53.238;10.448;2023-12-04T11:57:39;149.90;;;37.63;;
20497;SDS011;10407;53.238;10.448;2023-12-04T12:02:46;145.63;;;34.93;;
20497;SDS011;10407;53.238;10.448;2023-12-04T12:05:22;143.60;;;35.73;;
20497;SDS011;10407;53.238;10.448;2023-12-04T12:07:52;148.57;;;35.43;;
20497;SDS011;10407;53.238;10.448;2023-12-04T12:10:20;142.53;;;34.87;;
20497;SDS011;10407;53.238;10.448;2023-12-04T12:12:48;142.47;;;36.33;;
20497;SDS011;10407;53.238;10.448;2023-12-04T12:15:15;141.50;;;33.10;;
20497;SDS011;10407;53.238;10.448;2023-12-04T12:17:43;143.77;;;37.87;;
20497;SDS011;10407;53.238;10.448;2023-12-04T12:20:11;146.50;;;39.30;;
20497;SDS011;10407;53.238;10.448;2023-12-04T12:22:41;140.27;;;32.50;;
20497;SDS011;10407;53.238;10.448;2023-12-04T12:25:10;147.57;;;34.37;;
20497;SDS011;10407;53.238;10.448;2023-12-04T12:27:38;148.27;;;38.20;;
20497;SDS011;10407;53.238;10.448;2023-12-04T12:30:07;145.37;;;36.70;;
20497;SDS011;10407;53.238;10.448;2023-12-04T12:32:34;153.37;;;39.23;;
20497;SDS011;10407;53.238;10.448;2023-12-04T12:35:02;148.43;;;36.57;;
20497;SDS011;10407;53.238;10.448;2023-12-04T12:37:30;146.57;;;36.00;;
20497;SDS011;10407;53.238;10.448;2023-12-04T12:39:58;143.10;;;33.80;;
20497;SDS011;10407;53.238;10.448;2023-12-04T12:42:26;146.17;;;36.63;;
20497;SDS011;10407;53.238;10.448;2023-12-04T12:44:55;142.77;;;36.60;;
20497;SDS011;10407;53.238;10.448;2023-12-04T12:47:24;147.60;;;35.17;;
20497;SDS011;10407;53.238;10.448;2023-12-04T12:49:52;143.90;;;36.33;;
20497;SDS011;10407;53.238;10.448;2023-12-04T12:52:19;148.17;;;35.23;;
20497;SDS011;10407;53.238;10.448;2023-12-04T12:54:47;143.97;;;36.43;;
20497;SDS011;10407;53.238;10.448;2023-12-04T12:57:15;143.13;;;35.40;;
20497;SDS011;10407;53.238;10.448;2023-12-04T12:59:42;142.77;;;35.20;;
20497;SDS011;10407;53.238;10.448;2023-12-04T13:02:10;144.60;;;37.87;;
20497;SDS011;10407;53.238;10.448;2023-12-04T13:04:38;141.93;;;34.30;;
20497;SDS011;10407;53.238;10.448;2023-12-04T13:07:08;143.13;;;36.20;;
20497;SDS011;10407;53.238;10.448;2023-12-04T13:09:36;142.00;;;33.97;;
20497;SDS011;10407;53.238;10.448;2023-12-04T13:12:05;145.73;;;35.93;;
20497;SDS011;10407;53.238;10.448;2023-12-04T13:14:34;141.40;;;33.87;;
20497;SDS011;10407;53.238;10.448;2023-12-04T13:17:02;146.10;;;34.70;;
20497;SDS011;10407;53.238;10.448;2023-12-04T13:19:30;144.37;;;35.07;;
20497;SDS011;10407;53.238;10.448;2023-12-04T13:21:59;148.53;;;35.93;;
20497;SDS011;10407;53.238;10.448;2023-12-04T13:24:27;141.03;;;34.17;;
20497;SDS011;10407;53.238;10.448;2023-12-04T13:26:55;139.87;;;34.47;;
20497;SDS011;10407;53.238;10.448;2023-12-04T13:29:23;144.60;;;34.10;;
20497;SDS011;10407;53.238;10.448;2023-12-04T13:31:50;145.57;;;40.70;;
20497;SDS011;10407;53.238;10.448;2023-12-04T13:34:18;146.27;;;36.40;;
20497;SDS011;10407;53.238;10.448;2023-12-04T13:36:46;144.27;;;36.37;;
20497;SDS011;10407;53.238;10.448;2023-12-04T13:39:14;145.97;;;36.57;;
20497;SDS011;10407;53.238;10.448;2023-12-04T13:41:45;142.37;;;36.50;;
20497;SDS011;10407;53.238;10.448;2023-12-04T13:44:31;143.60;;;37.23;;
20497;SDS011;10407;53.238;10.448;2023-12-04T13:46:59;145.57;;;37.93;;
20497;SDS011;10407;53.238;10.448;2023-12-04T13:49:26;146.27;;;38.10;;
20497;SDS011;10407;53.238;10.448;2023-12-04T13:51:54;145.27;;;38.23;;
20497;SDS011;10407;53.238;10.448;2023-12-04T13:54:23;144.93;;;34.83;;
20497;SDS011;10407;53.238;10.448;2023-12-04T13:56:53;142.00;;;35.90;;
20497;SDS011;10407;53.238;10.448;2023-12-04T13:59:22;147.07;;;36.63;;
20497;SDS011;10407;53.238;10.448;2023-12-04T14:01:50;146.07;;;36.13;;
20497;SDS011;10407;53.238;10.448;2023-12-04T14:04:19;146.13;;;38.47;;
20497;SDS011;10407;53.238;10.448;2023-12-04T14:06:49;146.10;;;37.30;;
20497;SDS011;10407;53.238;10.448;2023-12-04T14:09:16;151.17;;;38.00;;